ADDS METAR Data

Data at: 1822 UTC 20 Jul 2018

METAR for:KEEN (Keene/Hopkins Arpt, NH, US)
Text:KEEN 201756Z AUTO 19005KT 10SM CLR 29/12 A3015 RMK AO2 SLP225 T02940117 10300 20167 58014
Temperature: 29.4°C ( 85°F)
Dewpoint: 11.7°C ( 53°F) [RH = 34%]
Pressure (altimeter):30.15 inches Hg (1021.1 mb) [Sea level pressure: 1022.5 mb]
Winds:from the S (190 degrees) at 6 MPH (5 knots; 2.6 m/s)
Visibility:10 or more sm (16+ km)
Ceiling:at least 12,000 feet AGL
Clouds:sky clear below 12,000 feet AGL
QC Flag:automated observation with no human augmentation